Waterloo, Texas
Current Conditions -  °F | °C
As of 4:38 AM on Thursday 18 Dec 2014 (Local Time) from KGRK Reporting Station
Haze Haze  
Wind Chill: 46°   Ceiling: 200
Heat Index: 46°   Visibility: 0.75mi
Dew Point: 46°   Wind: 1mph
Humidity: 100%   Direction: 360°N
Pressure: 30.08"   Gusts: NA
Location:  30.5793°N, 97.5096°W
Report Text: KGRK 181038Z AUTO 36001KT 3/4SM R33/5500FT BR VV002 08/08 A3008 RMK AO2
Loading
Personal Weather Stations






























Interactive Weather Map New forecast layout! Learn more

10-Day Weather Forecast

Advertisements
Track Severe Weather on mobile